KBNW/BNW METAR and TAF weather

Enter ICAO airport designator
Station Type Date Time Source
KBNW METAR 2019/04/18 20:15 UTC NOAA

KBNW 182015Z AUTO 34016G22KT 10SM SCT034 OVC042 11/04 A2984 RMK AO2


Station Type Date Time Source
KBNW Decoded METAR 2019/04/18 20:15 UTC NOAA

Boone Municipal, IA, United States (KBNW) 42-03N 093-51W
Apr 18, 2019 - 04:15 PM EDT / 2019.04.18 2015 UTC
Wind: from the NNW (340 degrees) at 18 MPH (16 KT) gusting to 25 MPH (22 KT):0
Visibility: 10 mile(s):0
Sky conditions: overcast
Temperature: 51 F (11 C)
Dew Point: 39 F (4 C)
Relative Humidity: 61%
Pressure (altimeter): 29.84 in. Hg (1010 hPa)
ob: KBNW 182015Z AUTO 34016G22KT 10SM SCT034 OVC042 11/04 A2984 RMK AO2
cycle: 20

Station Type Date Time Source
KBNW TAF UTC NOAA

Error!

Example: see airport list